Time;durP1;ratioP1;P1;durP2;ratioP2;P2;SDS_P1;SDS_P2;PMS_P1;PMS_P2;Temp;Humidity;BMP_temperature;BMP_pressure;BME280_temperature;BME280_humidity;BME280_pressure;Samples;Min_cycle;Max_cycle;Signal;HPM_P1;HPM_P2
2023/01/19 00:03:45;;;;;;;;;;;;;;;19.89;30.83;94418.06;10340503;28;1932;-46
2023/01/19 00:08:47;;;;;;;;;;;;;;;19.85;31.13;94422.38;10345200;28;2045;-49
2023/01/19 00:13:52;;;;;;;;;;;;;;;19.83;30.94;94431.63;10343851;28;1947;-46
2023/01/19 00:18:52;;;;;;;;;;;;;;;19.81;30.91;94441.66;10344937;28;1981;-48
2023/01/19 00:23:53;;;;;;;;;;;;;;;19.78;30.95;94443.06;10339674;28;1995;-50
2023/01/19 00:28:53;;;;;;;;;;;;;;;19.76;30.69;94447.06;10348961;28;1974;-48
2023/01/19 00:33:53;;;;;;;;;;;;;;;19.75;31.00;94458.66;10343750;28;2094;-49
2023/01/19 00:38:53;;;;;;;;;;;;;;;19.73;31.18;94455.53;10343244;28;2086;-48
2023/01/19 00:43:54;;;;;;;;;;;;;;;19.70;31.14;94456.16;10348507;28;1943;-48
2023/01/19 00:48:54;;;;;;;;;;;;;;;19.67;31.08;94467.25;10348029;28;2081;-50
2023/01/19 00:53:54;;;;;;;;;;;;;;;19.67;31.22;94469.88;10357068;28;1932;-51
2023/01/19 00:58:54;;;;;;;;;;;;;;;19.64;31.00;94467.88;10352075;28;1959;-50
2023/01/19 01:03:55;;;;;;;;;;;;;;;19.61;31.02;94476.31;10351989;28;1994;-47
2023/01/19 01:08:55;;;;;;;;;;;;;;;19.60;31.11;94477.41;10349124;28;2129;-49
2023/01/19 01:13:55;;;;;;;;;;;;;;;19.58;30.87;94475.06;10352438;28;1947;-51
2023/01/19 01:18:55;;;;;;;;;;;;;;;19.56;30.97;94490.34;10352715;28;1970;-48
2023/01/19 01:23:56;;;;;;;;;;;;;;;19.54;30.90;94495.13;10345908;28;1963;-48
2023/01/19 01:28:56;;;;;;;;;;;;;;;19.50;31.03;94491.53;10345977;28;2031;-48
2023/01/19 01:33:56;;;;;;;;;;;;;;;19.49;30.80;94497.88;10360082;28;2073;-47
2023/01/19 01:38:57;;;;;;;;;;;;;;;19.46;30.86;94504.50;10341509;28;2101;-50
2023/01/19 01:43:57;;;;;;;;;;;;;;;19.45;31.24;94513.44;10343073;28;2014;-51
2023/01/19 01:49:02;;;;;;;;;;;;;;;19.43;31.03;94510.34;10348930;28;2039;-47
2023/01/19 01:54:05;;;;;;;;;;;;;;;19.40;31.07;94516.19;10364763;28;2042;-49
2023/01/19 01:59:24;;;;;;;;;;;;;;;19.39;30.98;94514.63;10380531;28;1764;-50
2023/01/19 02:04:25;;;;;;;;;;;;;;;19.36;30.86;94524.97;10369180;28;1733;-51
2023/01/19 02:14:44;;;;;;;;;;;;;;;19.32;30.82;94516.88;10361071;28;1953;-48
2023/01/19 02:19:45;;;;;;;;;;;;;;;19.28;30.65;94518.53;10344836;28;1971;-47
2023/01/19 02:24:45;;;;;;;;;;;;;;;19.27;30.78;94527.47;10360869;28;1966;-52
2023/01/19 02:29:45;;;;;;;;;;;;;;;19.26;30.70;94533.81;10343860;28;1994;-48
2023/01/19 02:34:46;;;;;;;;;;;;;;;19.24;30.61;94532.53;10360861;28;1953;-49
2023/01/19 02:39:49;;;;;;;;;;;;;;;19.20;30.85;94537.63;10369247;28;1977;-47
2023/01/19 02:44:49;;;;;;;;;;;;;;;19.19;30.66;94543.13;10342817;28;2227;-46
2023/01/19 02:49:53;;;;;;;;;;;;;;;19.17;30.61;94540.81;10348178;28;2052;-50
2023/01/19 02:55:05;;;;;;;;;;;;;;;19.14;30.55;94549.28;10336476;28;2066;-48
2023/01/19 03:00:15;;;;;;;;;;;;;;;19.14;30.73;94556.41;10342791;28;2053;-48
2023/01/19 03:05:32;;;;;;;;;;;;;;;19.11;30.58;94554.34;10343352;28;2019;-49
2023/01/19 03:10:47;;;;;;;;;;;;;;;19.08;30.53;94550.44;10341542;28;2018;-49
2023/01/19 03:15:55;;;;;;;;;;;;;;;19.05;30.43;94550.25;10348819;28;1979;-48
2023/01/19 03:20:56;;;;;;;;;;;;;;;19.04;30.30;94533.72;10336563;28;2039;-49
2023/01/19 03:25:56;;;;;;;;;;;;;;;19.01;30.32;94536.94;10356288;28;1956;-47
2023/01/19 03:31:05;;;;;;;;;;;;;;;18.99;30.18;94536.44;10349036;28;2066;-50
2023/01/19 03:36:17;;;;;;;;;;;;;;;18.98;30.37;94539.38;10345566;28;2088;-49
2023/01/19 03:41:17;;;;;;;;;;;;;;;18.95;30.35;94548.59;10349729;28;2019;-48
2023/01/19 03:46:18;;;;;;;;;;;;;;;18.93;30.31;94542.09;10353695;28;2161;-49
2023/01/19 03:51:18;;;;;;;;;;;;;;;18.91;30.15;94545.00;10343551;28;2137;-49
2023/01/19 03:56:19;;;;;;;;;;;;;;;18.89;30.34;94557.66;10346458;28;2106;-47
2023/01/19 04:01:21;;;;;;;;;;;;;;;18.88;30.31;94566.59;10342716;28;1977;-50
2023/01/19 04:06:21;;;;;;;;;;;;;;;18.85;30.41;94556.69;10360651;28;2125;-46
2023/01/19 04:11:22;;;;;;;;;;;;;;;18.84;30.26;94554.31;10354908;28;1940;-45
2023/01/19 04:16:22;;;;;;;;;;;;;;;18.81;30.18;94560.97;10359791;28;1971;-50
2023/01/19 04:21:22;;;;;;;;;;;;;;;18.79;30.18;94552.59;10334181;28;2029;-48
2023/01/19 04:26:22;;;;;;;;;;;;;;;18.77;29.99;94549.47;10342089;28;2160;-49
2023/01/19 04:31:23;;;;;;;;;;;;;;;18.75;30.24;94556.88;10347982;28;1930;-47
2023/01/19 04:36:23;;;;;;;;;;;;;;;18.75;29.97;94556.09;10342855;28;1988;-52
2023/01/19 04:41:23;;;;;;;;;;;;;;;18.72;30.05;94556.66;10344906;28;2098;-51
2023/01/19 04:46:23;;;;;;;;;;;;;;;18.70;30.01;94559.56;10342038;28;1951;-49
2023/01/19 04:51:24;;;;;;;;;;;;;;;18.67;30.05;94557.50;10343175;28;2102;-48
2023/01/19 04:56:24;;;;;;;;;;;;;;;18.66;30.02;94555.97;10345326;28;2074;-50
2023/01/19 05:01:24;;;;;;;;;;;;;;;18.63;30.05;94561.78;10352273;28;2053;-47
2023/01/19 05:06:25;;;;;;;;;;;;;;;18.61;30.06;94564.69;10356390;28;1975;-52
2023/01/19 05:11:25;;;;;;;;;;;;;;;18.61;30.28;94572.56;10344187;28;1975;-47
2023/01/19 05:16:25;;;;;;;;;;;;;;;18.58;30.20;94573.16;10347578;28;1978;-47
2023/01/19 05:21:25;;;;;;;;;;;;;;;18.63;30.07;94577.53;10340323;28;2033;-47
2023/01/19 05:26:26;;;;;;;;;;;;;;;18.75;29.71;94590.22;10334308;28;2213;-48
2023/01/19 05:31:26;;;;;;;;;;;;;;;18.80;29.67;94587.47;10339503;28;2078;-47
2023/01/19 05:36:26;;;;;;;;;;;;;;;18.82;28.96;94595.84;10337802;28;2141;-48
2023/01/19 05:41:27;;;;;;;;;;;;;;;18.84;28.36;94588.44;10350738;28;1998;-45
2023/01/19 05:46:27;;;;;;;;;;;;;;;18.86;28.29;94597.59;10350168;28;1967;-46
2023/01/19 05:51:33;;;;;;;;;;;;;;;18.89;27.94;94599.66;10344387;28;2084;-46
2023/01/19 05:56:34;;;;;;;;;;;;;;;18.93;27.98;94600.66;10354907;28;1980;-49
2023/01/19 06:01:35;;;;;;;;;;;;;;;18.96;27.72;94618.44;10356609;28;2053;-47
2023/01/19 06:06:36;;;;;;;;;;;;;;;18.99;27.87;94628.38;10354348;28;1986;-47
2023/01/19 06:11:36;;;;;;;;;;;;;;;19.03;27.58;94637.22;10345438;28;1998;-47
2023/01/19 06:16:36;;;;;;;;;;;;;;;19.06;27.57;94635.88;10344765;28;2216;-46
2023/01/19 06:21:37;;;;;;;;;;;;;;;19.08;27.61;94631.09;10354411;28;2036;-47
2023/01/19 06:26:37;;;;;;;;;;;;;;;19.09;27.51;94646.56;10350190;28;2082;-46
2023/01/19 06:31:37;;;;;;;;;;;;;;;19.11;27.53;94644.44;10350989;28;1970;-48
2023/01/19 06:36:37;;;;;;;;;;;;;;;19.13;27.34;94649.38;10344242;28;2042;-50
2023/01/19 06:41:38;;;;;;;;;;;;;;;19.13;27.04;94644.91;10345511;28;2054;-47
2023/01/19 06:46:38;;;;;;;;;;;;;;;19.15;27.10;94657.75;10349828;28;2015;-47
2023/01/19 06:51:39;;;;;;;;;;;;;;;19.16;26.87;94662.75;10341278;28;1951;-47
2023/01/19 06:56:39;;;;;;;;;;;;;;;19.18;27.06;94670.31;10348519;28;1951;-48
2023/01/19 07:01:39;;;;;;;;;;;;;;;19.22;27.42;94672.09;10345962;28;2113;-48
2023/01/19 07:06:40;;;;;;;;;;;;;;;19.25;27.19;94670.69;10345950;28;2256;-46
2023/01/19 07:11:40;;;;;;;;;;;;;;;19.27;26.98;94679.84;10343857;28;2026;-47
2023/01/19 07:16:41;;;;;;;;;;;;;;;19.29;27.07;94676.94;10358686;28;1994;-47
2023/01/19 07:21:41;;;;;;;;;;;;;;;19.35;27.45;94687.09;10350627;28;2125;-50
2023/01/19 07:26:41;;;;;;;;;;;;;;;19.35;27.71;94691.59;10347632;28;2105;-47
2023/01/19 07:31:41;;;;;;;;;;;;;;;19.38;28.64;94691.78;10338864;28;2015;-49
2023/01/19 07:36:42;;;;;;;;;;;;;;;19.37;27.53;94700.72;10342599;28;2142;-50
2023/01/19 07:41:43;;;;;;;;;;;;;;;19.35;27.47;94702.09;10361517;28;1958;-47
2023/01/19 07:46:43;;;;;;;;;;;;;;;19.63;28.01;94702.88;10344112;28;1975;-46
2023/01/19 07:51:43;;;;;;;;;;;;;;;19.66;26.95;94712.81;10344386;28;1971;-48
2023/01/19 07:56:44;;;;;;;;;;;;;;;19.72;27.03;94712.41;10345108;28;1935;-50
2023/01/19 08:01:44;;;;;;;;;;;;;;;19.81;26.67;94712.50;10347765;28;2114;-48
2023/01/19 08:06:44;;;;;;;;;;;;;;;19.90;26.56;94721.28;10344332;28;2009;-48
2023/01/19 08:11:45;;;;;;;;;;;;;;;19.95;26.58;94726.44;10354897;28;1970;-47
2023/01/19 08:16:45;;;;;;;;;;;;;;;20.02;26.32;94732.88;10348495;28;1931;-46
2023/01/19 08:21:45;;;;;;;;;;;;;;;20.05;26.40;94729.63;10342212;28;2023;-46
2023/01/19 08:26:46;;;;;;;;;;;;;;;20.14;26.55;94735.00;10343563;28;1968;-46
2023/01/19 08:31:46;;;;;;;;;;;;;;;20.19;26.67;94748.88;10339111;28;2039;-46
2023/01/19 08:36:46;;;;;;;;;;;;;;;20.20;26.73;94744.38;10344216;28;1956;-45
2023/01/19 08:41:46;;;;;;;;;;;;;;;20.24;26.82;94750.59;10347210;28;1998;-49
2023/01/19 08:46:47;;;;;;;;;;;;;;;20.20;27.30;94745.16;10347873;28;1986;-49
2023/01/19 08:51:47;;;;;;;;;;;;;;;20.18;27.40;94752.53;10337174;28;2156;-48
2023/01/19 08:56:48;;;;;;;;;;;;;;;20.17;27.72;94761.50;10335937;28;2046;-46
2023/01/19 09:01:48;;;;;;;;;;;;;;;19.97;27.91;94758.50;10336576;28;1990;-48
2023/01/19 09:06:48;;;;;;;;;;;;;;;19.96;27.71;94759.56;10347965;28;2007;-48
2023/01/19 09:11:49;;;;;;;;;;;;;;;19.81;28.20;94763.25;10350351;28;2018;-46
2023/01/19 09:16:49;;;;;;;;;;;;;;;19.72;28.43;94764.25;10348051;28;2057;-50
2023/01/19 09:21:49;;;;;;;;;;;;;;;19.65;28.44;94763.84;10355755;28;2058;-50
2023/01/19 09:26:50;;;;;;;;;;;;;;;19.56;28.50;94770.84;10344526;28;2043;-46
2023/01/19 09:31:50;;;;;;;;;;;;;;;19.49;28.72;94766.72;10351459;28;1927;-49
2023/01/19 09:36:51;;;;;;;;;;;;;;;19.44;29.12;94772.09;10354304;28;1951;-51
2023/01/19 09:42:14;;;;;;;;;;;;;;;19.42;29.37;94773.44;10353104;28;1966;-48
2023/01/19 09:47:15;;;;;;;;;;;;;;;19.39;29.66;94777.41;10340196;28;2083;-46
2023/01/19 09:52:15;;;;;;;;;;;;;;;19.34;29.59;94776.72;10346332;28;2062;-51
2023/01/19 09:57:15;;;;;;;;;;;;;;;19.28;29.90;94770.75;10338170;28;2153;-48
2023/01/19 10:02:25;;;;;;;;;;;;;;;19.24;29.79;94767.16;10343728;28;1967;-46
2023/01/19 10:07:28;;;;;;;;;;;;;;;19.26;30.38;94772.91;10345046;28;1977;-49
2023/01/19 10:12:43;;;;;;;;;;;;;;;19.25;30.45;94776.59;10344323;28;2110;-49
2023/01/19 10:17:47;;;;;;;;;;;;;;;19.20;30.38;94770.63;10347158;28;1972;-47
2023/01/19 10:22:47;;;;;;;;;;;;;;;19.17;30.77;94772.00;10344603;28;2078;-52
2023/01/19 10:27:48;;;;;;;;;;;;;;;19.13;30.67;94773.63;10344572;28;2107;-50
2023/01/19 10:32:48;;;;;;;;;;;;;;;19.10;30.53;94771.56;10362939;28;1966;-48
2023/01/19 10:37:49;;;;;;;;;;;;;;;19.06;30.72;94772.44;10364587;28;2152;-52
2023/01/19 10:42:49;;;;;;;;;;;;;;;19.08;30.68;94778.94;10351622;28;2074;-46
2023/01/19 10:47:51;;;;;;;;;;;;;;;19.02;30.82;94772.22;10358655;28;2103;-46
2023/01/19 10:52:52;;;;;;;;;;;;;;;19.02;31.07;94764.34;10353264;28;1959;-50
2023/01/19 10:57:52;;;;;;;;;;;;;;;18.99;31.14;94762.31;10353267;28;1970;-46
2023/01/19 11:02:53;;;;;;;;;;;;;;;18.97;30.98;94764.44;10348120;28;2069;-47
2023/01/19 11:07:54;;;;;;;;;;;;;;;18.94;31.02;94762.38;10353679;28;1966;-50
2023/01/19 11:13:14;;;;;;;;;;;;;;;18.95;31.04;94763.94;10345066;28;1947;-47
2023/01/19 11:18:33;;;;;;;;;;;;;;;18.92;30.96;94759.25;10349311;28;1994;-49
2023/01/19 11:23:44;;;;;;;;;;;;;;;18.88;31.06;94754.84;10342590;28;2031;-48
2023/01/19 11:28:45;;;;;;;;;;;;;;;18.86;31.20;94751.72;10341150;28;1946;-46
2023/01/19 11:33:49;;;;;;;;;;;;;;;18.83;31.13;94752.31;10355113;28;2101;-44
2023/01/19 11:38:56;;;;;;;;;;;;;;;18.81;31.15;94747.34;10350464;28;2063;-48
2023/01/19 11:43:57;;;;;;;;;;;;;;;18.79;31.45;94746.09;10353944;28;2005;-49
2023/01/19 11:49:00;;;;;;;;;;;;;;;18.80;31.81;94732.66;10349883;28;1942;-47
2023/01/19 11:54:01;;;;;;;;;;;;;;;18.80;32.47;94731.88;10351688;28;1922;-48
2023/01/19 11:59:01;;;;;;;;;;;;;;;18.81;32.65;94728.97;10343849;28;1958;-48
2023/01/19 12:04:14;;;;;;;;;;;;;;;18.78;32.64;94731.38;10334519;28;2062;-46
2023/01/19 12:09:26;;;;;;;;;;;;;;;18.74;32.80;94731.19;10356750;28;2084;-47
2023/01/19 12:14:40;;;;;;;;;;;;;;;18.66;32.39;94716.09;10344944;28;2119;-48
2023/01/19 12:19:43;;;;;;;;;;;;;;;18.68;32.73;94716.56;10354567;28;2076;-47
2023/01/19 12:24:48;;;;;;;;;;;;;;;18.71;32.35;94716.03;10337897;28;2053;-46
2023/01/19 12:29:49;;;;;;;;;;;;;;;18.74;32.40;94712.81;10341999;28;2136;-45
2023/01/19 12:34:50;;;;;;;;;;;;;;;18.72;32.42;94719.41;10340445;28;2250;-45
2023/01/19 12:39:50;;;;;;;;;;;;;;;18.70;32.68;94709.19;10340143;28;2090;-48
2023/01/19 12:45:06;;;;;;;;;;;;;;;18.65;32.69;94709.25;10336913;28;2055;-49
2023/01/19 12:50:10;;;;;;;;;;;;;;;18.60;32.83;94711.97;10334681;28;2051;-45
2023/01/19 12:55:13;;;;;;;;;;;;;;;18.58;32.76;94703.59;10338011;28;2124;-50
2023/01/19 13:00:22;;;;;;;;;;;;;;;18.52;32.75;94705.53;10357847;28;2111;-45
2023/01/19 13:05:26;;;;;;;;;;;;;;;18.51;32.81;94705.81;10344010;28;2092;-47
2023/01/19 13:10:45;;;;;;;;;;;;;;;18.50;32.87;94701.63;10340497;28;2339;-48
2023/01/19 13:15:45;;;;;;;;;;;;;;;18.48;32.68;94709.00;10348316;28;2042;-50
2023/01/19 13:20:47;;;;;;;;;;;;;;;18.42;32.76;94699.63;10352806;28;2094;-49
2023/01/19 13:25:49;;;;;;;;;;;;;;;18.41;32.56;94706.72;10361699;28;2012;-49
2023/01/19 13:30:51;;;;;;;;;;;;;;;18.38;32.92;94709.13;10359921;28;2053;-47
2023/01/19 13:35:55;;;;;;;;;;;;;;;18.54;32.43;94702.63;10341215;28;2024;-46
2023/01/19 13:40:55;;;;;;;;;;;;;;;18.69;32.05;94705.78;10354002;28;2181;-49
2023/01/19 13:45:56;;;;;;;;;;;;;;;18.81;31.70;94707.97;10344985;28;2099;-47
2023/01/19 13:50:57;;;;;;;;;;;;;;;18.90;31.52;94700.22;10339733;28;2039;-45
2023/01/19 13:56:12;;;;;;;;;;;;;;;18.95;31.00;94705.38;10363356;28;1992;-46
2023/01/19 14:01:19;;;;;;;;;;;;;;;18.99;30.83;94709.78;10360035;28;1987;-45
2023/01/19 14:06:29;;;;;;;;;;;;;;;19.04;30.63;94703.66;10367477;28;2082;-50
2023/01/19 14:11:29;;;;;;;;;;;;;;;19.03;30.39;94705.50;10343598;28;2186;-47
2023/01/19 14:16:29;;;;;;;;;;;;;;;19.04;30.61;94712.31;10362058;28;2192;-51
2023/01/19 14:21:36;;;;;;;;;;;;;;;19.05;30.55;94713.09;10345232;28;2065;-45
2023/01/19 14:26:36;;;;;;;;;;;;;;;18.99;30.38;94715.03;10362675;28;2075;-49
2023/01/19 14:31:42;;;;;;;;;;;;;;;19.03;30.23;94721.28;10339672;28;2062;-47
2023/01/19 14:36:43;;;;;;;;;;;;;;;18.98;29.97;94725.84;10343220;28;2059;-49
2023/01/19 14:41:46;;;;;;;;;;;;;;;19.07;30.14;94719.63;10349508;28;2051;-47
2023/01/19 14:46:47;;;;;;;;;;;;;;;19.12;29.76;94727.44;10347843;28;2063;-46
2023/01/19 14:51:47;;;;;;;;;;;;;;;19.09;29.40;94730.63;10366507;28;2109;-49
2023/01/19 14:56:47;;;;;;;;;;;;;;;19.12;29.54;94729.28;10351473;28;2120;-48
2023/01/19 15:01:47;;;;;;;;;;;;;;;19.02;29.22;94735.44;10345602;28;2070;-49
2023/01/19 15:06:48;;;;;;;;;;;;;;;18.89;29.12;94746.72;10368135;28;2068;-50
2023/01/19 15:11:48;;;;;;;;;;;;;;;18.84;29.09;94738.91;10353439;28;2124;-44
2023/01/19 15:16:49;;;;;;;;;;;;;;;18.77;29.01;94743.75;10374491;28;2102;-50
2023/01/19 15:21:49;;;;;;;;;;;;;;;18.73;28.88;94745.38;10347399;28;2072;-45
2023/01/19 15:26:49;;;;;;;;;;;;;;;18.71;28.84;94755.38;10352886;28;2042;-45
2023/01/19 15:31:49;;;;;;;;;;;;;;;18.69;28.84;94753.03;10355016;28;2086;-45
2023/01/19 15:36:50;;;;;;;;;;;;;;;18.68;28.92;94750.69;10355525;28;2097;-44
2023/01/19 15:41:50;;;;;;;;;;;;;;;18.67;28.86;94754.38;10342475;28;2050;-47
2023/01/19 15:46:50;;;;;;;;;;;;;;;18.66;28.88;94758.88;10348116;28;2042;-45
2023/01/19 15:51:50;;;;;;;;;;;;;;;18.66;28.90;94758.06;10344151;28;2121;-47
2023/01/19 15:56:51;;;;;;;;;;;;;;;18.66;28.66;94758.06;10346587;28;2007;-51
2023/01/19 16:01:51;;;;;;;;;;;;;;;18.68;28.28;94755.94;10347400;28;2003;-51
2023/01/19 16:06:52;;;;;;;;;;;;;;;18.74;28.40;94765.31;10347845;28;1999;-49
2023/01/19 16:11:53;;;;;;;;;;;;;;;18.76;28.36;94771.06;10350580;28;2032;-48
2023/01/19 16:16:54;;;;;;;;;;;;;;;18.79;28.11;94767.09;10343243;28;2028;-48
2023/01/19 16:21:54;;;;;;;;;;;;;;;18.81;28.08;94773.63;10342680;28;2034;-45
2023/01/19 16:26:54;;;;;;;;;;;;;;;18.83;28.52;94774.13;10335346;28;2038;-45
2023/01/19 16:31:55;;;;;;;;;;;;;;;18.85;28.68;94768.56;10343811;28;2173;-47
2023/01/19 16:36:55;;;;;;;;;;;;;;;18.86;28.48;94765.66;10348590;28;2023;-50
2023/01/19 16:41:55;;;;;;;;;;;;;;;18.86;28.15;94768.28;10348497;28;2095;-48
2023/01/19 16:46:56;;;;;;;;;;;;;;;18.89;28.43;94772.19;10349338;28;2040;-48
2023/01/19 16:51:57;;;;;;;;;;;;;;;18.87;28.67;94776.94;10353091;28;2179;-48
2023/01/19 16:56:57;;;;;;;;;;;;;;;18.89;28.11;94772.97;10340988;28;2050;-47
2023/01/19 17:01:58;;;;;;;;;;;;;;;18.91;28.14;94773.47;10345948;28;2117;-48
2023/01/19 17:06:58;;;;;;;;;;;;;;;18.91;28.00;94777.94;10339520;28;2014;-45
2023/01/19 17:11:59;;;;;;;;;;;;;;;18.95;28.58;94781.53;10337478;28;2075;-48
2023/01/19 17:16:59;;;;;;;;;;;;;;;19.35;30.43;94775.69;10343347;28;1943;-58
2023/01/19 17:23:50;;;;;;;;;;;;;;;20.87;27.21;94775.03;10516814;27;2120;-60
2023/01/19 17:33:05;;;;;;;;;;;;;;;20.14;30.14;94769.19;10528568;27;2449;-61
2023/01/19 17:38:05;;;;;;;;;;;;;;;19.96;29.76;94776.13;10464967;28;2115;-63
2023/01/19 17:43:05;;;;;;;;;;;;;;;19.90;29.81;94755.47;10473604;28;1990;-63
2023/01/19 17:48:06;;;;;;;;;;;;;;;19.80;29.25;94764.34;10467386;28;2042;-67
2023/01/19 17:53:06;;;;;;;;;;;;;;;19.75;29.73;94768.91;10467601;28;2050;-64
2023/01/19 17:58:06;;;;;;;;;;;;;;;19.72;29.30;94774.75;10458337;28;1990;-65
2023/01/19 18:03:06;;;;;;;;;;;;;;;19.71;29.10;94771.34;10464336;28;2037;-64
2023/01/19 18:08:07;;;;;;;;;;;;;;;19.69;29.77;94775.31;10466935;28;2025;-64
2023/01/19 18:13:07;;;;;;;;;;;;;;;19.65;30.27;94776.97;10495008;28;2122;-64
2023/01/19 18:18:07;;;;;;;;;;;;;;;19.71;30.01;94784.50;10469513;28;2048;-66
2023/01/19 18:23:07;;;;;;;;;;;;;;;19.68;29.85;94776.41;10466971;28;2074;-66
2023/01/19 18:28:08;;;;;;;;;;;;;;;19.67;30.80;94777.47;10466687;28;2085;-66
2023/01/19 18:33:08;;;;;;;;;;;;;;;19.67;30.73;94780.09;10470740;28;2161;-65
2023/01/19 18:38:08;;;;;;;;;;;;;;;19.68;31.22;94779.03;10459285;28;2121;-67
2023/01/19 18:43:09;;;;;;;;;;;;;;;19.66;30.67;94781.94;10441449;28;2061;-67
2023/01/19 18:48:09;;;;;;;;;;;;;;;19.69;30.35;94783.22;10432284;28;2013;-67
2023/01/19 18:53:09;;;;;;;;;;;;;;;19.69;30.81;94785.84;10436941;28;2068;-67
2023/01/19 18:58:10;;;;;;;;;;;;;;;19.73;30.54;94789.44;10434699;28;2015;-67
2023/01/19 19:03:10;;;;;;;;;;;;;;;19.71;30.40;94786.34;10463641;28;1998;-66
2023/01/19 19:08:10;;;;;;;;;;;;;;;19.77;30.36;94787.81;10435845;28;2025;-67
2023/01/19 19:13:11;;;;;;;;;;;;;;;19.70;30.68;94788.19;10441278;28;2139;-67
2023/01/19 19:18:12;;;;;;;;;;;;;;;19.71;30.58;94784.50;10446518;28;2050;-67
2023/01/19 19:23:12;;;;;;;;;;;;;;;19.69;31.28;94783.22;10445454;28;2065;-67
2023/01/19 19:28:13;;;;;;;;;;;;;;;19.71;30.55;94781.06;10436929;28;2365;-68
2023/01/19 19:33:13;;;;;;;;;;;;;;;19.72;30.74;94780.03;10472303;28;2070;-65
2023/01/19 19:38:13;;;;;;;;;;;;;;;19.78;30.38;94776.22;10472096;28;2061;-67
2023/01/19 19:43:13;;;;;;;;;;;;;;;19.76;30.78;94773.91;10440750;28;2045;-67
2023/01/19 19:48:14;;;;;;;;;;;;;;;19.75;30.24;94776.78;10442987;28;2509;-67
2023/01/19 19:53:14;;;;;;;;;;;;;;;19.75;29.73;94776.78;10445675;28;2037;-68
2023/01/19 19:58:14;;;;;;;;;;;;;;;19.82;30.58;94769.31;10444107;28;2009;-66
2023/01/19 20:03:14;;;;;;;;;;;;;;;19.85;30.33;94773.97;10440253;28;2082;-66
2023/01/19 20:08:15;;;;;;;;;;;;;;;19.88;30.90;94773.41;10436635;28;2098;-65
2023/01/19 20:13:18;;;;;;;;;;;;;;;19.90;30.36;94776.53;10444679;28;2067;-66
2023/01/19 20:18:18;;;;;;;;;;;;;;;19.92;30.23;94782.28;10450783;28;2044;-67
2023/01/19 20:23:18;;;;;;;;;;;;;;;19.93;30.23;94787.22;10448568;28;2042;-67
2023/01/19 20:28:18;;;;;;;;;;;;;;;19.94;30.49;94794.06;10446487;28;2305;-67
2023/01/19 20:33:19;;;;;;;;;;;;;;;19.96;30.22;94788.50;10447979;28;2047;-67
2023/01/19 20:38:19;;;;;;;;;;;;;;;19.94;30.36;94777.50;10474262;28;2114;-67
